createdAt,value
2022-12-19T00:01:20.419Z,48.15
2022-12-19T00:03:46.857Z,48.36
2022-12-19T00:06:13.245Z,48.41
2022-12-19T00:08:39.632Z,48.40
2022-12-19T00:11:06.065Z,48.44
2022-12-19T00:13:33.650Z,47.71
2022-12-19T00:16:07.280Z,47.97
2022-12-19T00:18:33.678Z,48.00
2022-12-19T00:21:00.080Z,47.49
2022-12-19T00:23:26.432Z,47.38
2022-12-19T00:25:52.837Z,48.00
2022-12-19T00:28:20.225Z,48.32
2022-12-19T00:30:47.813Z,48.47
2022-12-19T00:33:14.171Z,48.49
2022-12-19T00:35:40.552Z,48.69
2022-12-19T00:38:06.936Z,48.73
2022-12-19T00:40:33.322Z,47.97
2022-12-19T00:42:59.701Z,48.73
2022-12-19T00:45:27.115Z,47.65
2022-12-19T00:47:55.549Z,47.61
2022-12-19T00:50:21.894Z,48.27
2022-12-19T00:52:48.236Z,48.56
2022-12-19T00:55:18.410Z,47.87
2022-12-19T00:57:45.646Z,47.95
2022-12-19T01:00:11.988Z,48.48
2022-12-19T01:02:38.513Z,47.42
2022-12-19T01:05:05.024Z,47.75
2022-12-19T01:07:31.376Z,47.71
2022-12-19T01:09:57.755Z,47.82
2022-12-19T01:12:24.573Z,47.86
2022-12-19T01:14:51.387Z,47.89
2022-12-19T01:17:17.757Z,47.75
2022-12-19T01:19:44.849Z,47.79
2022-12-19T01:22:11.290Z,48.07
2022-12-19T01:24:37.775Z,47.32
2022-12-19T01:27:04.182Z,47.73
2022-12-19T01:29:30.538Z,48.19
2022-12-19T01:31:58.504Z,47.19
2022-12-19T01:34:24.921Z,48.28
2022-12-19T01:36:51.280Z,47.35
2022-12-19T01:39:17.661Z,48.26
2022-12-19T01:41:44.011Z,48.68
2022-12-19T01:44:10.343Z,48.53
2022-12-19T01:46:36.787Z,50.07
2022-12-19T01:49:03.235Z,49.31
2022-12-19T01:51:29.620Z,49.83
2022-12-19T01:53:55.971Z,49.90
2022-12-19T01:56:22.296Z,49.16
2022-12-19T01:58:48.701Z,49.68
2022-12-19T02:01:15.159Z,51.36
2022-12-19T02:03:41.591Z,49.89
2022-12-19T02:06:07.989Z,50.03
2022-12-19T02:08:34.377Z,49.29
2022-12-19T02:11:01.366Z,50.34
2022-12-19T02:13:27.798Z,49.90
2022-12-19T02:15:54.189Z,50.86
2022-12-19T02:18:20.549Z,49.77
2022-12-19T02:20:46.889Z,50.85
2022-12-19T02:23:13.263Z,50.86
2022-12-19T02:25:40.224Z,50.71
2022-12-19T02:28:06.816Z,51.27
2022-12-19T02:30:33.443Z,51.02
2022-12-19T02:32:59.838Z,50.92
2022-12-19T02:35:26.219Z,50.83
2022-12-19T02:37:52.604Z,51.17
2022-12-19T02:40:20.440Z,51.92
2022-12-19T02:42:46.840Z,52.69
2022-12-19T02:45:13.210Z,51.50
2022-12-19T02:47:43.143Z,51.20
2022-12-19T02:50:09.496Z,50.96
2022-12-19T02:52:35.882Z,50.99
2022-12-19T02:55:02.280Z,50.30
2022-12-19T02:57:28.636Z,50.51
2022-12-19T02:59:55.389Z,50.52
2022-12-19T03:02:23.397Z,50.00
2022-12-19T03:04:49.849Z,50.84
2022-12-19T03:07:16.240Z,50.11
2022-12-19T03:09:42.851Z,49.65
2022-12-19T03:12:11.623Z,49.86
2022-12-19T03:14:40.532Z,49.67
2022-12-19T03:17:06.962Z,49.68
2022-12-19T03:19:33.397Z,50.16
2022-12-19T03:21:59.756Z,49.82
2022-12-19T03:24:26.402Z,50.15
2022-12-19T03:26:52.831Z,49.38
2022-12-19T03:29:19.187Z,49.55
2022-12-19T03:31:45.521Z,49.55
2022-12-19T03:34:11.864Z,49.45
2022-12-19T03:36:38.257Z,49.99
2022-12-19T03:39:04.969Z,49.42
2022-12-19T03:41:31.364Z,49.55
2022-12-19T03:43:57.723Z,49.84
2022-12-19T03:46:24.308Z,50.06
2022-12-19T03:48:50.681Z,51.77
2022-12-19T03:51:17.071Z,51.25
2022-12-19T03:53:43.421Z,51.08
2022-12-19T03:56:09.801Z,51.75
2022-12-19T03:58:36.210Z,51.89
2022-12-19T04:01:02.601Z,51.54
2022-12-19T04:03:29.060Z,50.70
2022-12-19T04:05:55.483Z,50.66
2022-12-19T04:08:21.900Z,51.67
2022-12-19T04:10:48.288Z,49.87
2022-12-19T04:13:14.663Z,49.65
2022-12-19T04:15:41.087Z,49.86
2022-12-19T04:18:07.497Z,50.94
2022-12-19T04:20:34.322Z,50.70
2022-12-19T04:23:00.726Z,51.40
2022-12-19T04:25:29.504Z,51.00
2022-12-19T04:27:56.105Z,50.30
2022-12-19T04:30:22.490Z,50.23
2022-12-19T04:32:48.855Z,50.35
2022-12-19T04:35:15.223Z,49.93
2022-12-19T04:37:41.588Z,49.71
2022-12-19T04:40:07.958Z,49.09
2022-12-19T04:42:34.305Z,49.54
2022-12-19T04:45:00.654Z,50.75
2022-12-19T04:47:27.033Z,50.24
2022-12-19T04:49:53.391Z,50.13
2022-12-19T04:52:19.788Z,50.55
2022-12-19T04:54:46.144Z,49.94
2022-12-19T04:57:12.524Z,51.20
2022-12-19T04:59:38.911Z,51.56
2022-12-19T05:02:05.363Z,51.82
2022-12-19T05:04:31.853Z,50.86
2022-12-19T05:06:58.235Z,50.16
2022-12-19T05:09:25.198Z,50.29
2022-12-19T05:11:51.597Z,51.12
2022-12-19T05:14:17.948Z,50.76
2022-12-19T05:16:44.429Z,50.58
2022-12-19T05:19:10.795Z,50.09
2022-12-19T05:21:37.140Z,50.58
2022-12-19T05:24:03.540Z,51.35
2022-12-19T05:26:29.923Z,51.46
2022-12-19T05:28:56.354Z,51.99
2022-12-19T05:31:22.774Z,51.11
2022-12-19T05:33:49.397Z,50.82
2022-12-19T05:36:15.788Z,50.79
2022-12-19T05:38:42.154Z,50.94
2022-12-19T05:41:08.492Z,50.65
2022-12-19T05:43:34.880Z,50.19
2022-12-19T05:46:01.294Z,50.52
2022-12-19T05:48:27.680Z,50.39
2022-12-19T05:50:54.067Z,51.01
2022-12-19T05:53:24.611Z,50.54
2022-12-19T05:55:52.337Z,50.32
2022-12-19T05:58:18.762Z,49.71
2022-12-19T06:00:45.162Z,49.62
2022-12-19T06:03:11.676Z,50.88
2022-12-19T06:05:38.142Z,50.44
2022-12-19T06:08:04.522Z,49.32
2022-12-19T06:10:30.940Z,49.53
2022-12-19T06:12:57.305Z,50.23
2022-12-19T06:15:23.660Z,49.88
2022-12-19T06:17:50.006Z,49.88
2022-12-19T06:20:16.374Z,50.41
2022-12-19T06:22:42.783Z,49.35
2022-12-19T06:25:09.182Z,49.56
2022-12-19T06:27:35.550Z,49.74
2022-12-19T06:30:01.914Z,49.43
2022-12-19T06:32:28.267Z,49.37
2022-12-19T06:35:04.076Z,49.69
2022-12-19T06:37:30.668Z,50.05
2022-12-19T06:39:57.009Z,50.21
2022-12-19T06:42:23.387Z,50.34
2022-12-19T06:44:49.788Z,50.46
2022-12-19T06:47:16.137Z,50.10
2022-12-19T06:49:42.479Z,49.03
2022-12-19T06:52:09.338Z,48.77
2022-12-19T06:54:35.810Z,50.06
2022-12-19T06:57:02.216Z,49.52
2022-12-19T06:59:28.578Z,49.70
2022-12-19T07:01:55.051Z,50.07
2022-12-19T07:04:21.768Z,49.82
2022-12-19T07:06:49.410Z,50.15
2022-12-19T07:09:15.933Z,48.30
2022-12-19T07:11:42.278Z,50.08
2022-12-19T07:14:08.659Z,50.76
2022-12-19T07:16:37.227Z,50.48
2022-12-19T07:19:03.677Z,49.87
2022-12-19T07:21:30.035Z,49.56
2022-12-19T07:23:56.414Z,50.53
2022-12-19T07:26:22.801Z,51.30
2022-12-19T07:28:49.160Z,50.62
2022-12-19T07:31:15.586Z,49.81
2022-12-19T07:33:41.949Z,49.78
2022-12-19T07:36:08.321Z,49.37
2022-12-19T07:38:34.713Z,49.78
2022-12-19T07:41:01.116Z,50.14
2022-12-19T07:43:27.513Z,50.72
2022-12-19T07:45:53.946Z,50.27
2022-12-19T07:48:20.385Z,49.96
2022-12-19T07:50:46.750Z,49.95
2022-12-19T07:53:13.142Z,49.72
2022-12-19T07:55:39.545Z,49.53
2022-12-19T07:58:05.936Z,49.23
2022-12-19T08:00:32.340Z,49.95
2022-12-19T08:02:58.899Z,51.06
2022-12-19T08:05:25.381Z,50.45
2022-12-19T08:07:51.803Z,50.48
2022-12-19T08:10:18.181Z,50.32
2022-12-19T08:12:44.526Z,49.61
2022-12-19T08:15:11.007Z,50.06
2022-12-19T08:17:37.783Z,49.96
2022-12-19T08:20:04.140Z,49.40
2022-12-19T08:22:30.676Z,50.03
2022-12-19T08:24:57.067Z,49.71
2022-12-19T08:27:23.471Z,49.66
2022-12-19T08:29:49.869Z,49.32
2022-12-19T08:32:20.774Z,49.77
2022-12-19T08:34:47.711Z,48.90
2022-12-19T08:37:14.095Z,49.33
2022-12-19T08:39:40.506Z,49.06
2022-12-19T08:42:06.912Z,49.14
2022-12-19T08:44:33.304Z,49.71
2022-12-19T08:46:59.686Z,49.63
2022-12-19T08:49:26.088Z,48.98
2022-12-19T08:51:52.492Z,49.15
2022-12-19T08:54:18.866Z,49.36
2022-12-19T08:56:46.855Z,49.58
2022-12-19T08:59:13.597Z,48.95
2022-12-19T09:01:42.413Z,49.03
2022-12-19T09:05:47.727Z,48.63
2022-12-19T09:06:55.293Z,48.78
2022-12-19T09:09:21.644Z,48.58
2022-12-19T09:11:48.438Z,49.16
2022-12-19T09:14:14.912Z,49.00
2022-12-19T09:16:47.006Z,48.93
2022-12-19T09:19:13.496Z,49.60
2022-12-19T09:21:39.916Z,49.02
2022-12-19T09:24:08.145Z,50.05
2022-12-19T09:26:34.623Z,48.97
2022-12-19T09:29:01.044Z,49.65
2022-12-19T09:31:28.807Z,48.74
2022-12-19T09:33:55.183Z,49.33
2022-12-19T09:36:21.548Z,48.90
2022-12-19T09:38:47.960Z,49.86
2022-12-19T09:41:15.801Z,49.79
2022-12-19T09:43:44.421Z,50.12
2022-12-19T09:46:10.811Z,50.22
2022-12-19T09:48:37.174Z,50.54
2022-12-19T09:51:09.610Z,50.05
2022-12-19T09:53:37.334Z,50.67
2022-12-19T09:56:03.690Z,50.10
2022-12-19T09:58:30.054Z,50.74
2022-12-19T10:00:59.680Z,49.34
2022-12-19T10:03:32.272Z,49.84
2022-12-19T10:07:09.383Z,49.00
2022-12-19T10:09:26.851Z,48.86
2022-12-19T10:12:43.497Z,49.13
2022-12-19T10:14:25.598Z,48.95
2022-12-19T10:17:22.484Z,49.13
2022-12-19T10:19:39.936Z,48.99
2022-12-19T10:22:18.254Z,49.53
2022-12-19T10:24:46.478Z,50.10
2022-12-19T10:27:30.214Z,49.05
2022-12-19T10:29:56.633Z,49.56
2022-12-19T10:32:23.038Z,50.23
2022-12-19T10:34:49.442Z,50.08
2022-12-19T10:37:24.360Z,50.08
2022-12-19T10:39:55.958Z,49.80
2022-12-19T10:42:22.406Z,49.99
2022-12-19T10:44:48.777Z,49.65
2022-12-19T10:47:15.190Z,50.84
2022-12-19T10:49:41.601Z,49.86
2022-12-19T10:52:08.057Z,49.51
2022-12-19T10:54:34.463Z,50.86
2022-12-19T10:57:07.394Z,50.24
2022-12-19T10:59:33.800Z,50.97
2022-12-19T11:02:01.191Z,49.98
2022-12-19T11:04:28.170Z,49.48
2022-12-19T11:06:54.525Z,50.71
2022-12-19T11:09:21.000Z,49.46
2022-12-19T11:14:30.409Z,49.88
2022-12-19T11:19:18.740Z,49.84
2022-12-19T11:23:40.153Z,50.44
2022-12-19T11:29:31.808Z,49.64
2022-12-19T11:29:37.162Z,50.32
2022-12-19T11:30:06.588Z,49.62
2022-12-19T11:30:25.886Z,49.54
2022-12-19T11:33:58.329Z,50.06
2022-12-19T11:36:24.703Z,49.99
2022-12-19T11:38:51.054Z,51.01
2022-12-19T11:41:17.404Z,50.97
2022-12-19T11:43:45.918Z,49.84
2022-12-19T11:46:17.658Z,50.56
2022-12-19T11:48:47.663Z,49.75
2022-12-19T11:51:14.017Z,49.73
2022-12-19T11:53:40.383Z,49.64
2022-12-19T11:56:08.109Z,49.48
2022-12-19T11:58:43.032Z,50.69
2022-12-19T12:01:10.031Z,51.34
2022-12-19T12:03:36.497Z,51.44
2022-12-19T12:06:02.911Z,50.43
2022-12-19T12:10:35.929Z,49.91
2022-12-19T12:18:40.779Z,50.15
2022-12-19T12:24:20.693Z,50.79
2022-12-19T12:30:12.888Z,50.28
2022-12-19T12:31:19.068Z,49.81
2022-12-19T12:31:27.172Z,50.73
2022-12-19T12:31:38.596Z,50.45
2022-12-19T12:31:49.891Z,50.25
2022-12-19T12:32:06.317Z,50.23
2022-12-19T12:35:32.783Z,50.04
2022-12-19T12:38:59.283Z,49.86
2022-12-19T12:41:25.700Z,50.07
2022-12-19T12:43:52.110Z,50.50
2022-12-19T12:46:18.538Z,50.92
2022-12-19T12:48:44.939Z,51.31
2022-12-19T12:51:11.296Z,50.57
2022-12-19T12:53:37.642Z,51.26
2022-12-19T12:56:06.598Z,51.28
2022-12-19T12:58:33.626Z,51.25
2022-12-19T13:01:00.056Z,50.79
2022-12-19T13:03:26.527Z,50.69
2022-12-19T13:05:52.945Z,51.29
2022-12-19T13:08:19.316Z,50.74
2022-12-19T13:10:45.701Z,51.37
2022-12-19T13:13:15.701Z,51.53
2022-12-19T13:15:43.819Z,51.08
2022-12-19T13:18:10.179Z,51.51
2022-12-19T13:20:36.572Z,50.23
2022-12-19T13:23:02.943Z,51.72
2022-12-19T13:25:29.331Z,52.59
2022-12-19T13:27:57.680Z,53.21
2022-12-19T13:30:25.094Z,53.18
2022-12-19T13:32:51.529Z,53.09
2022-12-19T13:36:38.932Z,51.49
2022-12-19T13:40:00.504Z,50.98
2022-12-19T13:40:50.585Z,51.90
2022-12-19T13:43:16.946Z,52.47
2022-12-19T13:45:43.385Z,51.83
2022-12-19T13:48:09.814Z,50.99
2022-12-19T13:50:37.049Z,51.49
2022-12-19T13:53:03.443Z,52.36
2022-12-19T13:55:29.798Z,52.54
2022-12-19T13:57:56.183Z,52.47
2022-12-19T14:00:22.583Z,52.22
2022-12-19T14:02:49.231Z,51.77
2022-12-19T14:05:15.782Z,52.41
2022-12-19T14:07:42.149Z,51.44
2022-12-19T14:11:35.949Z,51.94
2022-12-19T14:13:53.115Z,52.20
2022-12-19T14:15:41.289Z,52.81
2022-12-19T14:18:42.857Z,52.46
2022-12-19T14:22:10.257Z,53.02
2022-12-19T14:23:43.636Z,53.93
2022-12-19T14:28:21.289Z,53.56
2022-12-19T14:28:57.116Z,53.32
2022-12-19T14:31:23.545Z,52.27
2022-12-19T14:36:36.245Z,53.52
2022-12-19T14:39:22.941Z,53.87
2022-12-19T14:41:49.006Z,53.38
2022-12-19T14:53:08.459Z,53.82
2022-12-19T14:53:52.227Z,54.14
2022-12-19T14:54:23.410Z,54.79
2022-12-19T14:54:31.209Z,53.62
2022-12-19T14:56:19.521Z,54.82
2022-12-19T14:58:53.360Z,54.67
2022-12-19T15:01:09.086Z,54.83
2022-12-19T15:03:37.732Z,54.36
2022-12-19T15:07:05.897Z,55.56
2022-12-19T15:10:58.224Z,54.70
2022-12-19T15:11:54.066Z,53.66
2022-12-19T15:14:50.663Z,53.03
2022-12-19T15:17:10.081Z,53.40
2022-12-19T15:19:36.440Z,53.62
2022-12-19T15:22:02.815Z,54.16
2022-12-19T15:24:29.184Z,52.67
2022-12-19T15:26:55.841Z,54.79
2022-12-19T15:29:22.502Z,54.96
2022-12-19T15:31:48.979Z,54.19
2022-12-19T15:34:34.082Z,53.36
2022-12-19T15:37:01.701Z,54.14
2022-12-19T15:39:28.063Z,54.02
2022-12-19T15:41:54.419Z,52.93
2022-12-19T15:44:20.813Z,53.36
2022-12-19T15:46:49.415Z,55.07
2022-12-19T15:49:16.129Z,54.06
2022-12-19T15:51:42.536Z,53.44
2022-12-19T15:54:46.760Z,53.08
2022-12-19T15:56:55.289Z,53.85
2022-12-19T15:59:21.711Z,53.75
2022-12-19T16:01:48.147Z,56.47
2022-12-19T16:04:14.800Z,54.58
2022-12-19T16:06:41.366Z,53.82
2022-12-19T16:09:07.748Z,53.73
2022-12-19T16:11:34.096Z,52.86
2022-12-19T16:14:00.446Z,53.02
2022-12-19T16:16:26.879Z,53.91
2022-12-19T16:18:53.288Z,53.62
2022-12-19T16:21:19.649Z,54.35
2022-12-19T16:23:46.002Z,54.42
2022-12-19T16:26:12.370Z,53.95
2022-12-19T16:28:38.721Z,53.74
2022-12-19T16:31:05.164Z,53.78
2022-12-19T16:33:31.559Z,53.53
2022-12-19T16:36:06.469Z,53.86
2022-12-19T16:38:33.551Z,56.12
2022-12-19T16:41:00.114Z,55.18
2022-12-19T16:43:26.515Z,53.96
2022-12-19T16:45:55.724Z,54.10
2022-12-19T16:48:26.315Z,55.16
2022-12-19T16:50:52.673Z,55.87
2022-12-19T16:53:19.098Z,54.57
2022-12-19T16:55:45.532Z,54.90
2022-12-19T16:58:11.907Z,55.20
2022-12-19T17:00:38.313Z,55.21
2022-12-19T17:03:04.729Z,54.68
2022-12-19T17:05:31.230Z,54.95
2022-12-19T17:07:57.651Z,54.74
2022-12-19T17:10:26.401Z,55.82
2022-12-19T17:12:52.981Z,54.44
2022-12-19T17:15:19.382Z,55.33
2022-12-19T17:17:45.818Z,54.17
2022-12-19T17:20:12.165Z,54.56
2022-12-19T17:22:38.559Z,53.06
2022-12-19T17:25:04.923Z,54.22
2022-12-19T17:27:31.279Z,51.92
2022-12-19T17:29:57.700Z,53.74
2022-12-19T17:32:24.780Z,52.64
2022-12-19T17:34:51.292Z,54.07
2022-12-19T17:37:17.650Z,53.75
2022-12-19T17:39:44.034Z,54.14
2022-12-19T17:42:10.402Z,53.17
2022-12-19T17:44:36.812Z,54.11
2022-12-19T17:47:03.217Z,51.58
2022-12-19T17:49:29.578Z,52.55
2022-12-19T17:51:55.918Z,53.34
2022-12-19T17:54:22.315Z,53.32
2022-12-19T17:56:48.747Z,54.12
2022-12-19T17:59:15.103Z,54.51
2022-12-19T18:01:41.559Z,53.65
2022-12-19T18:04:08.135Z,53.28
2022-12-19T18:06:34.478Z,54.41
2022-12-19T18:09:00.814Z,54.64
2022-12-19T18:11:27.244Z,54.28
2022-12-19T18:13:53.675Z,52.84
2022-12-19T18:16:20.138Z,53.38
2022-12-19T18:18:46.577Z,53.55
2022-12-19T18:21:12.936Z,51.77
2022-12-19T18:23:39.324Z,53.40
2022-12-19T18:26:05.717Z,54.76
2022-12-19T18:28:32.080Z,53.32
2022-12-19T18:30:58.541Z,53.83
2022-12-19T18:33:24.984Z,54.11
2022-12-19T18:35:51.340Z,56.21
2022-12-19T18:38:17.732Z,54.89
2022-12-19T18:40:44.148Z,54.70
2022-12-19T18:43:10.486Z,55.11
2022-12-19T18:45:36.998Z,54.24
2022-12-19T18:48:03.482Z,55.71
2022-12-19T18:50:29.894Z,55.78
2022-12-19T18:52:56.296Z,55.36
2022-12-19T18:55:22.681Z,56.61
2022-12-19T18:57:49.069Z,55.75
2022-12-19T19:00:15.434Z,54.67
2022-12-19T19:02:41.905Z,54.48
2022-12-19T19:05:08.395Z,54.62
2022-12-19T19:07:34.779Z,55.27
2022-12-19T19:10:01.153Z,56.71
2022-12-19T19:12:27.547Z,55.37
2022-12-19T19:14:53.933Z,55.55
2022-12-19T19:17:20.349Z,55.20
2022-12-19T19:19:46.743Z,54.37
2022-12-19T19:22:13.114Z,55.45
2022-12-19T19:24:39.525Z,55.03
2022-12-19T19:27:05.929Z,54.22
2022-12-19T19:29:32.286Z,54.31
2022-12-19T19:31:58.688Z,54.93
2022-12-19T19:34:25.046Z,55.49
2022-12-19T19:36:51.471Z,55.38
2022-12-19T19:39:17.869Z,56.50
2022-12-19T19:41:44.243Z,55.35
2022-12-19T19:44:10.647Z,55.29
2022-12-19T19:46:37.123Z,54.92
2022-12-19T19:49:03.568Z,54.17
2022-12-19T19:51:29.944Z,55.33
2022-12-19T19:53:56.307Z,53.27
2022-12-19T19:56:22.715Z,58.49
2022-12-19T19:58:49.109Z,56.08
2022-12-19T20:01:15.576Z,54.54
2022-12-19T20:03:42.124Z,53.46
2022-12-19T20:06:09.281Z,56.40
2022-12-19T20:08:39.693Z,56.34
2022-12-19T20:11:06.710Z,53.75
2022-12-19T20:13:33.103Z,53.98
2022-12-19T20:15:59.525Z,53.10
2022-12-19T20:18:25.968Z,54.30
2022-12-19T20:20:52.309Z,53.44
2022-12-19T20:23:18.708Z,53.63
2022-12-19T20:25:45.057Z,55.74
2022-12-19T20:28:11.461Z,53.12
2022-12-19T20:30:37.867Z,53.46
2022-12-19T20:33:04.267Z,53.55
2022-12-19T20:35:30.643Z,56.35
2022-12-19T20:37:57.010Z,55.25
2022-12-19T20:40:23.404Z,55.75
2022-12-19T20:42:49.778Z,55.44
2022-12-19T20:45:16.298Z,54.20
2022-12-19T20:47:42.705Z,55.32
2022-12-19T20:50:09.095Z,55.17
2022-12-19T20:52:35.523Z,54.70
2022-12-19T20:55:01.881Z,55.94
2022-12-19T20:57:28.266Z,54.79
2022-12-19T20:59:54.653Z,54.67
2022-12-19T21:02:21.124Z,52.98
2022-12-19T21:04:47.695Z,53.77
2022-12-19T21:07:14.148Z,53.00
2022-12-19T21:09:40.508Z,53.09
2022-12-19T21:12:07.056Z,52.38
2022-12-19T21:14:33.413Z,52.33
2022-12-19T21:16:59.811Z,53.18
2022-12-19T21:19:26.219Z,53.11
2022-12-19T21:21:52.597Z,53.96
2022-12-19T21:24:19.058Z,55.50
2022-12-19T21:26:45.451Z,54.41
2022-12-19T21:29:11.856Z,52.92
2022-12-19T21:31:38.258Z,52.93
2022-12-19T21:34:04.657Z,52.95
2022-12-19T21:36:31.109Z,52.59
2022-12-19T21:38:57.539Z,52.64
2022-12-19T21:41:24.011Z,53.15
2022-12-19T21:43:51.139Z,53.60
2022-12-19T21:46:17.577Z,51.15
2022-12-19T21:48:44.032Z,52.99
2022-12-19T21:51:10.450Z,53.41
2022-12-19T21:53:36.831Z,53.60
2022-12-19T21:56:03.202Z,52.94
2022-12-19T21:58:29.587Z,54.49
2022-12-19T22:00:55.958Z,54.52
2022-12-19T22:03:22.460Z,53.73
2022-12-19T22:05:48.905Z,53.35
2022-12-19T22:08:15.320Z,52.65
2022-12-19T22:10:41.699Z,53.32
2022-12-19T22:13:08.113Z,53.93
2022-12-19T22:15:34.525Z,54.08
2022-12-19T22:18:00.893Z,54.94
2022-12-19T22:20:27.256Z,53.18
2022-12-19T22:22:53.644Z,51.75
2022-12-19T22:25:19.996Z,52.15
2022-12-19T22:27:46.330Z,51.72
2022-12-19T22:30:12.673Z,52.08
2022-12-19T22:32:39.051Z,52.43
2022-12-19T22:35:05.410Z,52.49
2022-12-19T22:37:31.866Z,52.68
2022-12-19T22:39:58.350Z,52.86
2022-12-19T22:42:24.750Z,53.85
2022-12-19T22:44:51.147Z,54.02
2022-12-19T22:47:17.497Z,52.37
2022-12-19T22:49:43.889Z,52.79
2022-12-19T22:52:10.287Z,53.10
2022-12-19T22:54:36.682Z,52.42
2022-12-19T22:57:03.042Z,52.56
2022-12-19T22:59:29.413Z,51.89
2022-12-19T23:01:55.898Z,51.67
2022-12-19T23:04:22.571Z,51.39
2022-12-19T23:06:49.000Z,51.57
2022-12-19T23:09:15.386Z,50.90
2022-12-19T23:11:41.733Z,51.05
2022-12-19T23:14:08.134Z,51.93
2022-12-19T23:16:34.596Z,50.79
2022-12-19T23:19:01.044Z,51.22
2022-12-19T23:21:27.411Z,51.84
2022-12-19T23:23:53.779Z,49.79
2022-12-19T23:26:20.114Z,49.77
2022-12-19T23:28:46.475Z,50.35
2022-12-19T23:31:12.868Z,50.36
2022-12-19T23:33:39.296Z,51.28
2022-12-19T23:36:05.722Z,50.61
2022-12-19T23:38:32.119Z,50.29
2022-12-19T23:40:58.488Z,51.18
2022-12-19T23:43:24.856Z,52.12
2022-12-19T23:45:51.469Z,52.39
2022-12-19T23:48:17.846Z,51.01
2022-12-19T23:50:44.184Z,51.57
2022-12-19T23:53:10.556Z,51.26
2022-12-19T23:55:36.931Z,50.74
2022-12-19T23:58:07.879Z,51.58
